sensor_id;sensor_type;location;lat;lon;timestamp;temperature;humidity
31499;DHT22;18115;52.486;13.386;2023-02-15T00:01:45;2.70;99.90
31499;DHT22;18115;52.486;13.386;2023-02-15T00:04:16;2.70;99.90
31499;DHT22;18115;52.486;13.386;2023-02-15T00:06:42;2.70;99.90
31499;DHT22;18115;52.486;13.386;2023-02-15T00:09:09;2.70;99.90
31499;DHT22;18115;52.486;13.386;2023-02-15T00:11:35;3.10;99.90
31499;DHT22;18115;52.486;13.386;2023-02-15T00:14:20;3.00;99.90
31499;DHT22;18115;52.486;13.386;2023-02-15T00:16:47;2.50;99.90
31499;DHT22;18115;52.486;13.386;2023-02-15T00:19:16;2.50;99.90
31499;DHT22;18115;52.486;13.386;2023-02-15T00:21:42;2.50;99.90
31499;DHT22;18115;52.486;13.386;2023-02-15T00:24:11;2.40;99.90
31499;DHT22;18115;52.486;13.386;2023-02-15T00:26:41;2.40;99.90
31499;DHT22;18115;52.486;13.386;2023-02-15T00:29:07;2.40;99.90
31499;DHT22;18115;52.486;13.386;2023-02-15T00:31:33;2.40;99.90
31499;DHT22;18115;52.486;13.386;2023-02-15T00:34:20;2.40;99.90
31499;DHT22;18115;52.486;13.386;2023-02-15T00:36:46;2.40;99.90
31499;DHT22;18115;52.486;13.386;2023-02-15T00:39:12;2.80;99.90
31499;DHT22;18115;52.486;13.386;2023-02-15T00:41:38;2.40;99.90
31499;DHT22;18115;52.486;13.386;2023-02-15T00:44:04;2.40;99.90
31499;DHT22;18115;52.486;13.386;2023-02-15T00:46:30;2.30;99.90
31499;DHT22;18115;52.486;13.386;2023-02-15T00:48:56;2.30;99.90
31499;DHT22;18115;52.486;13.386;2023-02-15T00:51:22;2.30;99.90
31499;DHT22;18115;52.486;13.386;2023-02-15T00:53:48;2.20;99.90
31499;DHT22;18115;52.486;13.386;2023-02-15T00:56:14;2.20;99.90
31499;DHT22;18115;52.486;13.386;2023-02-15T00:58:40;2.20;99.90
31499;DHT22;18115;52.486;13.386;2023-02-15T01:01:11;2.10;99.90
31499;DHT22;18115;52.486;13.386;2023-02-15T01:03:37;2.10;99.90
31499;DHT22;18115;52.486;13.386;2023-02-15T01:06:03;2.00;99.90
31499;DHT22;18115;52.486;13.386;2023-02-15T01:08:30;2.00;99.90
31499;DHT22;18115;52.486;13.386;2023-02-15T01:10:55;1.90;99.90
31499;DHT22;18115;52.486;13.386;2023-02-15T01:13:22;1.90;99.90
31499;DHT22;18115;52.486;13.386;2023-02-15T01:15:53;1.90;99.90
31499;DHT22;18115;52.486;13.386;2023-02-15T01:18:20;1.90;99.90
31499;DHT22;18115;52.486;13.386;2023-02-15T01:20:46;1.90;99.90
31499;DHT22;18115;52.486;13.386;2023-02-15T01:23:12;1.80;99.90
31499;DHT22;18115;52.486;13.386;2023-02-15T01:25:38;1.80;99.90
31499;DHT22;18115;52.486;13.386;2023-02-15T01:28:04;1.90;99.90
31499;DHT22;18115;52.486;13.386;2023-02-15T01:30:30;1.90;99.90
31499;DHT22;18115;52.486;13.386;2023-02-15T01:32:55;1.90;99.90
31499;DHT22;18115;52.486;13.386;2023-02-15T01:35:21;2.10;99.90
31499;DHT22;18115;52.486;13.386;2023-02-15T01:37:47;1.90;99.90
31499;DHT22;18115;52.486;13.386;2023-02-15T01:40:15;1.90;99.90
31499;DHT22;18115;52.486;13.386;2023-02-15T01:42:41;1.90;99.90
31499;DHT22;18115;52.486;13.386;2023-02-15T01:45:31;1.80;99.90
31499;DHT22;18115;52.486;13.386;2023-02-15T01:48:02;1.80;99.90
31499;DHT22;18115;52.486;13.386;2023-02-15T01:50:38;1.50;99.90
31499;DHT22;18115;52.486;13.386;2023-02-15T01:55:59;1.70;99.90
31499;DHT22;18115;52.486;13.386;2023-02-15T01:58:27;1.70;99.90
31499;DHT22;18115;52.486;13.386;2023-02-15T02:00:57;1.70;99.90
31499;DHT22;18115;52.486;13.386;2023-02-15T02:03:35;1.70;99.90
31499;DHT22;18115;52.486;13.386;2023-02-15T02:06:02;1.70;99.90
31499;DHT22;18115;52.486;13.386;2023-02-15T02:08:27;1.70;99.90
31499;DHT22;18115;52.486;13.386;2023-02-15T02:10:53;1.70;99.90
31499;DHT22;18115;52.486;13.386;2023-02-15T02:13:19;1.70;99.90
31499;DHT22;18115;52.486;13.386;2023-02-15T02:21:25;1.70;99.90
31499;DHT22;18115;52.486;13.386;2023-02-15T02:35:23;1.60;99.90
31499;DHT22;18115;52.486;13.386;2023-02-15T02:49:13;1.60;99.90
31499;DHT22;18115;52.486;13.386;2023-02-15T02:51:38;1.60;99.90
31499;DHT22;18115;52.486;13.386;2023-02-15T02:54:06;1.60;99.90
31499;DHT22;18115;52.486;13.386;2023-02-15T02:56:42;1.60;99.90
31499;DHT22;18115;52.486;13.386;2023-02-15T02:59:26;1.50;99.90
31499;DHT22;18115;52.486;13.386;2023-02-15T03:02:13;1.50;99.90
31499;DHT22;18115;52.486;13.386;2023-02-15T03:04:55;1.40;99.90
31499;DHT22;18115;52.486;13.386;2023-02-15T03:07:30;1.40;99.90
31499;DHT22;18115;52.486;13.386;2023-02-15T03:09:58;1.80;99.90
31499;DHT22;18115;52.486;13.386;2023-02-15T03:12:32;1.30;99.90
31499;DHT22;18115;52.486;13.386;2023-02-15T03:15:29;1.30;99.90
31499;DHT22;18115;52.486;13.386;2023-02-15T03:18:17;1.40;99.90
31499;DHT22;18115;52.486;13.386;2023-02-15T03:20:46;1.30;99.90
31499;DHT22;18115;52.486;13.386;2023-02-15T03:23:20;2.00;99.90
31499;DHT22;18115;52.486;13.386;2023-02-15T03:25:51;1.30;99.90
31499;DHT22;18115;52.486;13.386;2023-02-15T03:28:33;1.20;99.90
31499;DHT22;18115;52.486;13.386;2023-02-15T03:31:02;1.20;99.90
31499;DHT22;18115;52.486;13.386;2023-02-15T03:33:29;1.30;99.90
31499;DHT22;18115;52.486;13.386;2023-02-15T03:36:07;1.20;99.90
31499;DHT22;18115;52.486;13.386;2023-02-15T03:38:40;1.10;99.90
31499;DHT22;18115;52.486;13.386;2023-02-15T03:41:09;1.10;99.90
31499;DHT22;18115;52.486;13.386;2023-02-15T03:46:23;1.10;99.90
31499;DHT22;18115;52.486;13.386;2023-02-15T03:49:03;1.20;99.90
31499;DHT22;18115;52.486;13.386;2023-02-15T03:51:36;1.10;99.90
31499;DHT22;18115;52.486;13.386;2023-02-15T03:54:20;1.10;99.90
31499;DHT22;18115;52.486;13.386;2023-02-15T03:57:09;1.10;99.90
31499;DHT22;18115;52.486;13.386;2023-02-15T03:59:54;1.00;99.90
31499;DHT22;18115;52.486;13.386;2023-02-15T04:05:30;1.00;99.90
31499;DHT22;18115;52.486;13.386;2023-02-15T04:07:56;1.30;99.90
31499;DHT22;18115;52.486;13.386;2023-02-15T04:10:21;0.90;99.90
31499;DHT22;18115;52.486;13.386;2023-02-15T04:13:05;0.90;99.90
31499;DHT22;18115;52.486;13.386;2023-02-15T04:15:31;0.80;99.90
31499;DHT22;18115;52.486;13.386;2023-02-15T04:18:15;0.80;99.90
31499;DHT22;18115;52.486;13.386;2023-02-15T04:20:44;0.80;99.90
31499;DHT22;18115;52.486;13.386;2023-02-15T04:23:28;1.60;99.90
31499;DHT22;18115;52.486;13.386;2023-02-15T04:26:12;0.70;99.90
31499;DHT22;18115;52.486;13.386;2023-02-15T04:28:38;0.70;99.90
31499;DHT22;18115;52.486;13.386;2023-02-15T04:31:04;0.60;99.90
31499;DHT22;18115;52.486;13.386;2023-02-15T04:33:29;0.60;99.90
31499;DHT22;18115;52.486;13.386;2023-02-15T04:35:55;1.40;99.90
31499;DHT22;18115;52.486;13.386;2023-02-15T04:38:22;0.60;99.90
31499;DHT22;18115;52.486;13.386;2023-02-15T04:40:51;0.50;99.90
31499;DHT22;18115;52.486;13.386;2023-02-15T04:43:19;0.50;99.90
31499;DHT22;18115;52.486;13.386;2023-02-15T04:45:51;0.50;99.90
31499;DHT22;18115;52.486;13.386;2023-02-15T04:48:17;0.40;99.90
31499;DHT22;18115;52.486;13.386;2023-02-15T04:50:44;0.70;99.90
31499;DHT22;18115;52.486;13.386;2023-02-15T04:53:10;0.20;99.90
31499;DHT22;18115;52.486;13.386;2023-02-15T04:55:35;0.20;99.90
31499;DHT22;18115;52.486;13.386;2023-02-15T04:58:01;0.20;99.90
31499;DHT22;18115;52.486;13.386;2023-02-15T05:00:26;0.20;99.90
31499;DHT22;18115;52.486;13.386;2023-02-15T05:02:52;0.20;99.90
31499;DHT22;18115;52.486;13.386;2023-02-15T05:05:18;0.20;99.90
31499;DHT22;18115;52.486;13.386;2023-02-15T05:07:44;0.20;99.90
31499;DHT22;18115;52.486;13.386;2023-02-15T05:10:09;0.20;99.90
31499;DHT22;18115;52.486;13.386;2023-02-15T05:12:35;1.70;99.90
31499;DHT22;18115;52.486;13.386;2023-02-15T05:15:01;0.40;99.90
31499;DHT22;18115;52.486;13.386;2023-02-15T05:17:26;0.10;99.90
31499;DHT22;18115;52.486;13.386;2023-02-15T05:19:52;0.20;99.90
31499;DHT22;18115;52.486;13.386;2023-02-15T05:22:18;0.10;99.90
31499;DHT22;18115;52.486;13.386;2023-02-15T05:24:43;0.20;99.90
31499;DHT22;18115;52.486;13.386;2023-02-15T05:27:27;0.10;99.90
31499;DHT22;18115;52.486;13.386;2023-02-15T05:30:12;0.00;99.90
31499;DHT22;18115;52.486;13.386;2023-02-15T05:32:38;0.10;99.90
31499;DHT22;18115;52.486;13.386;2023-02-15T05:35:05;0.10;99.90
31499;DHT22;18115;52.486;13.386;2023-02-15T05:37:31;0.10;99.90
31499;DHT22;18115;52.486;13.386;2023-02-15T05:39:57;0.10;99.90
31499;DHT22;18115;52.486;13.386;2023-02-15T05:42:22;0.20;99.90
31499;DHT22;18115;52.486;13.386;2023-02-15T05:44:48;0.20;99.90
31499;DHT22;18115;52.486;13.386;2023-02-15T05:49:41;0.50;99.90
31499;DHT22;18115;52.486;13.386;2023-02-15T05:52:07;0.30;99.90
31499;DHT22;18115;52.486;13.386;2023-02-15T05:54:33;0.40;99.90
31499;DHT22;18115;52.486;13.386;2023-02-15T05:56:59;0.40;99.90
31499;DHT22;18115;52.486;13.386;2023-02-15T05:59:24;0.30;99.90
31499;DHT22;18115;52.486;13.386;2023-02-15T06:01:50;0.30;99.90
31499;DHT22;18115;52.486;13.386;2023-02-15T06:04:16;0.30;99.90
31499;DHT22;18115;52.486;13.386;2023-02-15T06:06:41;0.60;99.90
31499;DHT22;18115;52.486;13.386;2023-02-15T06:09:07;0.30;99.90
31499;DHT22;18115;52.486;13.386;2023-02-15T06:11:32;0.30;99.90
31499;DHT22;18115;52.486;13.386;2023-02-15T06:13:58;0.50;99.90
31499;DHT22;18115;52.486;13.386;2023-02-15T06:16:23;0.40;99.90
31499;DHT22;18115;52.486;13.386;2023-02-15T06:18:49;0.50;99.90
31499;DHT22;18115;52.486;13.386;2023-02-15T06:21:15;0.40;99.90
31499;DHT22;18115;52.486;13.386;2023-02-15T06:23:40;0.70;99.90
31499;DHT22;18115;52.486;13.386;2023-02-15T06:26:06;0.50;99.90
31499;DHT22;18115;52.486;13.386;2023-02-15T06:28:32;0.60;99.90
31499;DHT22;18115;52.486;13.386;2023-02-15T06:30:57;0.50;99.90
31499;DHT22;18115;52.486;13.386;2023-02-15T06:33:23;1.20;99.90
31499;DHT22;18115;52.486;13.386;2023-02-15T06:35:49;0.40;99.90
31499;DHT22;18115;52.486;13.386;2023-02-15T06:38:14;0.60;99.90
31499;DHT22;18115;52.486;13.386;2023-02-15T06:40:40;0.20;99.90
31499;DHT22;18115;52.486;13.386;2023-02-15T06:43:06;0.50;99.90
31499;DHT22;18115;52.486;13.386;2023-02-15T06:45:31;0.30;99.90
31499;DHT22;18115;52.486;13.386;2023-02-15T06:47:57;0.40;99.90
31499;DHT22;18115;52.486;13.386;2023-02-15T06:57:41;0.60;99.90
31499;DHT22;18115;52.486;13.386;2023-02-15T07:00:07;0.50;99.90
31499;DHT22;18115;52.486;13.386;2023-02-15T07:02:33;0.50;99.90
31499;DHT22;18115;52.486;13.386;2023-02-15T07:07:25;0.70;99.90
31499;DHT22;18115;52.486;13.386;2023-02-15T07:12:17;0.60;99.90
31499;DHT22;18115;52.486;13.386;2023-02-15T07:15:01;0.80;99.90
31499;DHT22;18115;52.486;13.386;2023-02-15T07:17:29;0.70;99.90
31499;DHT22;18115;52.486;13.386;2023-02-15T07:19:56;0.80;99.90
31499;DHT22;18115;52.486;13.386;2023-02-15T07:27:14;0.70;99.90
31499;DHT22;18115;52.486;13.386;2023-02-15T07:29:40;0.80;99.90
31499;DHT22;18115;52.486;13.386;2023-02-15T07:32:06;1.50;99.90
31499;DHT22;18115;52.486;13.386;2023-02-15T07:34:31;0.90;99.90
31499;DHT22;18115;52.486;13.386;2023-02-15T07:36:57;0.90;99.90
31499;DHT22;18115;52.486;13.386;2023-02-15T07:41:49;0.80;99.90
31499;DHT22;18115;52.486;13.386;2023-02-15T07:44:14;1.00;99.90
31499;DHT22;18115;52.486;13.386;2023-02-15T07:46:40;1.00;99.90
31499;DHT22;18115;52.486;13.386;2023-02-15T07:49:07;1.00;99.90
31499;DHT22;18115;52.486;13.386;2023-02-15T07:51:33;1.00;99.90
31499;DHT22;18115;52.486;13.386;2023-02-15T07:56:25;0.90;99.90
31499;DHT22;18115;52.486;13.386;2023-02-15T08:01:23;1.20;99.90
31499;DHT22;18115;52.486;13.386;2023-02-15T08:06:15;1.30;99.90
31499;DHT22;18115;52.486;13.386;2023-02-15T08:08:41;1.20;99.90
31499;DHT22;18115;52.486;13.386;2023-02-15T23:19:22;3.30;99.90
31499;DHT22;18115;52.486;13.386;2023-02-15T23:24:35;3.30;99.90
31499;DHT22;18115;52.486;13.386;2023-02-15T23:27:01;3.30;99.90
31499;DHT22;18115;52.486;13.386;2023-02-15T23:32:17;3.20;99.90
31499;DHT22;18115;52.486;13.386;2023-02-15T23:34:44;3.80;99.90
31499;DHT22;18115;52.486;13.386;2023-02-15T23:37:11;3.20;99.90
31499;DHT22;18115;52.486;13.386;2023-02-15T23:39:37;3.20;99.90
31499;DHT22;18115;52.486;13.386;2023-02-15T23:42:32;3.20;99.90
31499;DHT22;18115;52.486;13.386;2023-02-15T23:44:59;3.10;99.90
31499;DHT22;18115;52.486;13.386;2023-02-15T23:47:33;3.10;99.90
31499;DHT22;18115;52.486;13.386;2023-02-15T23:50:19;3.10;99.90
31499;DHT22;18115;52.486;13.386;2023-02-15T23:55:12;3.00;99.90
31499;DHT22;18115;52.486;13.386;2023-02-15T23:57:39;3.90;99.90
